Latest Coastal Weather Observations for St Helens

IDT60701

Issued at 2:52 am EST Sunday 31 July 2016 (issued every 10 minutes, with the page automatically refreshed every 10 minutes)

About coastal observations | Map of coastal stations | Coastal observations for TAS | Marine services | Other Formats
Station Details ID: 092120 Name: ST HELENS AERODROME Lat: -41.34 Lon: 148.28 Height: 48.0 m
Data from the previous 72 hours. | See also: Recent months at St Helens
Date/Time
EST
Temp
°C
Wind Pressure Rain since
9am
mm
Weather Cloud Vis
km
Sea
Height
m
Swell
Dir  Spd
kts
Gust
kts
hPa Trend Height
m
Period
s
Dir
31/02:30am 11.8 NW 13 21 1004.6 - 0.0 - Cloudy 10 - - - -
31/02:03am 11.9 NW 15 28 1005.1 - 0.0 - Partly cloudy 10 - - - -
31/02:00am 11.8 NW 14 22 1005.2 - 0.0 - Partly cloudy 10 - - - -
31/01:32am 12.3 NNW 15 31 1005.5 - 0.0 - Cloudy 10 - - - -
31/01:30am 12.1 NNW 14 26 1005.5 - 0.0 - Cloudy 10 - - - -
31/01:28am 12.1 NNW 15 27 1005.6 - 0.0 - Cloudy 10 - - - -
31/01:00am 11.6 NNW 12 21 1006.6 - 0.0 - Partly cloudy 10 - - - -
31/12:30am 11.5 NNW 14 20 1007.3 - 0.0 - Partly cloudy 10 - - - -
31/12:00am 11.2 N 11 15 1008.1 - 0.0 - Cloudy 10 - - - -
 
Date/Time
EST
Temp
°C
Wind Pressure Rain since
9am
mm
Weather Cloud Vis
km
Sea
Height
m
Swell
Dir  Spd
kts
Gust
kts
hPa Trend Height
m
Period
s
Dir
30/11:30pm 11.2 N 13 19 1008.8 - 0.0 - Partly cloudy 10 - - - -
30/11:00pm 11.3 N 14 22 1009.0 - 0.0 - Partly cloudy 10 - - - -
30/10:30pm 11.2 NNW 13 24 1009.4 - 0.0 - Partly cloudy 10 - - - -
30/10:00pm 11.3 NNW 12 19 1009.9 - 0.0 - Partly cloudy 10 - - - -
30/09:30pm 11.0 NW 10 14 1010.2 - 0.0 - Partly cloudy 10 - - - -
30/09:00pm 11.4 NNW 10 18 1010.4 - 0.0 - Cloudy 10 - - - -
30/08:30pm 10.9 NNW 8 13 1010.7 - 0.0 - Partly cloudy 10 - - - -
30/08:00pm 9.8 N 9 14 1011.3 - 0.0 - Partly cloudy 10 - - - -
30/07:30pm 9.8 N 9 13 1011.4 - 0.0 - Partly cloudy 10 - - - -
30/07:00pm 9.8 N 10 16 1012.1 - 0.0 - Partly cloudy 10 - - - -
30/06:30pm 10.1 N 10 15 1012.4 - 0.0 - Partly cloudy 10 - - - -
30/06:00pm 10.1 NNW 8 12 1012.6 - 0.0 - Partly cloudy 10 - - - -
30/05:30pm 10.3 N 7 12 1012.7 - 0.0 - Cloudy 10 - - - -
30/05:00pm 10.3 NNW 9 12 1012.7 - 0.0 - - 10 - - - -
30/04:30pm 10.7 W 7 14 1013.3 - 0.0 - Partly cloudy 10 - - - -
30/04:00pm 11.6 WNW 9 14 1013.3 - 0.0 - - 10 - - - -
30/03:30pm 11.6 WNW 9 16 1013.8 - 0.0 - - 10 - - - -
30/03:00pm 11.7 NW 11 17 1014.1 - 0.0 - - 10 - - - -
30/02:30pm 12.0 W 9 17 1014.0 - 0.0 - - 10 - - - -
30/02:00pm 12.3 WNW 9 18 1014.2 - 0.0 - - 10 - - - -
30/01:30pm 11.9 W 9 17 1014.9 - 0.0 - - 10 - - - -
30/01:00pm 11.6 WNW 7 15 1015.7 - 0.0 - - 10 - - - -
30/12:30pm 11.8 WNW 5 9 1016.4 - 0.0 - Partly cloudy 10 - - - -
30/12:00pm 11.3 NW 5 7 1017.2 - 0.0 - Mostly clear 10 - - - -
30/11:30am 10.7 WNW 6 11 1017.8 - 0.0 - Partly cloudy 10 - - - -
30/11:00am 10.0 NW 5 8 1018.3 - 0.0 - - - - - - -
30/10:30am 9.3 N 4 7 1018.6 - 0.0 - - 10 - - - -
30/10:00am 6.8 NNW 4 5 1018.9 - 0.0 - - 10 - - - -
30/09:30am 5.2 N 3 4 1018.9 - 0.0 - - 10 - - - -
30/09:00am 3.4 N 5 7 1019.2 - 0.0 - Mostly clear 10 - - - -
30/08:30am 2.1 NNW 7 8 1019.3 - 0.0 - - 10 - - - -
30/08:00am 1.4 NNW 7 9 1019.4 - 0.0 - - 10 - - - -
30/07:30am 1.5 NNW 8 10 1019.1 - 0.0 - - 10 - - - -
30/07:00am 1.3 NW 7 9 1019.2 - 0.0 - - 10 - - - -
30/06:30am 1.5 NW 8 11 1019.1 - 0.0 - - 10 - - - -
30/06:00am 1.8 NNW 7 8 1019.1 - 0.0 - - 10 - - - -
30/05:30am 1.6 NNW 8 10 1018.9 - 0.0 - - 10 - - - -
30/05:00am 1.4 NW 7 9 1018.6 - 0.0 - - 10 - - - -
30/04:30am 2.1 NNW 7 8 1018.4 - 0.0 - - 10 - - - -
30/04:00am 2.1 NW 7 11 1018.2 - 0.0 - - 10 - - - -
30/03:30am 2.6 NW 5 8 1018.1 - 0.0 - - 10 - - - -
30/03:00am 3.2 NNW 6 8 1018.0 - 0.0 - - 10 - - - -
30/02:30am 3.4 NNW 4 8 1018.0 - 0.0 - - 10 - - - -
30/02:00am 4.1 WNW 4 6 1017.7 - 0.0 - - 10 - - - -
30/01:30am 4.5 WNW 3 4 1017.5 - 0.0 - - 10 - - - -
30/01:00am 5.1 W 1 4 1017.1 - 0.0 - - 10 - - - -
30/12:30am 5.2 SSW 2 5 1016.7 - 0.0 - - 10 - - - -
30/12:00am 6.4 WSW 3 4 1016.6 - 0.0 - - 10 - - - -
 
Date/Time
EST
Temp
°C
Wind Pressure Rain since
9am
mm
Weather Cloud Vis
km
Sea
Height
m
Swell
Dir  Spd
kts
Gust
kts
hPa Trend Height
m
Period
s
Dir
29/11:30pm 7.3 S 8 11 1015.9 - 0.0 - - 10 - - - -
29/11:00pm 7.4 SSW 6 9 1015.4 - 0.0 - - 10 - - - -
29/10:30pm 8.8 ENE 5 8 1015.3 - 0.0 - - 10 - - - -
29/10:00pm 9.6 SSW 8 15 1014.5 - 0.0 - - 10 - - - -
29/09:30pm 9.9 S 7 11 1013.9 - 0.0 - - 10 - - - -
29/09:00pm 10.8 S 9 13 1013.4 - 0.0 - - 10 - - - -
29/08:30pm 10.4 S 7 11 1012.5 - 0.0 - Partly cloudy 10 - - - -
29/08:00pm 10.2 CALM 0 0 1011.9 - 0.0 - Cloudy 10 - - - -
29/07:30pm 10.4 WNW 3 5 1011.2 - 0.0 - Partly cloudy 10 - - - -
29/07:00pm 10.6 NW 4 5 1010.4 - 0.0 - Partly cloudy 10 - - - -
29/06:30pm 11.1 W 1 4 1009.9 - 0.0 - Partly cloudy 10 - - - -
29/06:00pm 11.9 N 6 8 1009.2 - 0.0 - Cloudy 10 - - - -
29/05:30pm 12.2 NNW 6 9 1008.8 - 0.0 - Partly cloudy 10 - - - -
29/05:00pm 12.8 WNW 7 12 1008.1 - 0.0 - Partly cloudy 10 - - - -
29/04:30pm 13.0 WNW 8 16 1007.6 - 0.0 - Partly cloudy 10 - - - -
29/04:00pm 14.3 W 8 14 1007.4 - 0.0 - Partly cloudy 10 - - - -
29/03:30pm 15.3 WNW 7 15 1007.3 - 0.0 - Partly cloudy 10 - - - -
29/03:00pm 15.1 WNW 7 14 1007.2 - 0.0 - Partly cloudy 10 - - - -
29/02:30pm 14.9 W 8 16 1006.8 - 0.0 - Partly cloudy 10 - - - -
29/02:00pm 15.0 WNW 11 18 1006.6 - 0.0 - Partly cloudy 10 - - - -
29/01:30pm 15.6 W 10 21 1006.7 - 0.0 - Partly cloudy 10 - - - -
29/01:00pm 15.4 WNW 10 18 1006.9 - 0.0 - Partly cloudy 10 - - - -
29/12:30pm 14.7 W 10 18 1007.1 - 0.0 - - 10 - - - -
29/12:00pm 14.3 W 10 22 1007.4 - 0.0 - - 10 - - - -
29/11:30am 14.2 W 10 20 1007.7 - 0.0 - - 10 - - - -
29/11:00am 13.6 W 10 21 1008.5 - 0.0 - - 10 - - - -
29/10:30am 13.2 W 11 23 1008.7 - 0.0 - - 10 - - - -
29/10:00am 12.3 W 8 15 1008.6 - 0.0 - - 10 - - - -
29/09:30am 10.3 W 7 13 1008.8 - 0.0 - - 10 - - - -
29/09:00am 10.3 W 4 8 1009.2 - 0.0 - - 10 - - - -
29/08:30am 10.0 WNW 5 7 1009.3 - 0.0 - - 10 - - - -
29/08:00am 9.9 WNW 6 8 1009.6 - 0.0 - - 10 - - - -
29/07:30am 10.0 WNW 6 11 1009.4 - 0.0 - - 10 - - - -
29/07:00am 10.4 W 8 15 1009.4 - 0.0 - - 10 - - - -
29/06:30am 10.5 W 8 18 1009.4 - 0.0 - - 10 - - - -
29/06:00am 10.4 W 7 12 1009.3 - 0.0 - - 10 - - - -
29/05:30am 9.9 W 6 8 1009.5 - 0.0 - - 10 - - - -
29/05:00am 10.4 W 6 11 1009.2 - 0.0 - - 10 - - - -
29/04:30am 10.3 NW 6 8 1009.3 - 0.0 - - 10 - - - -
29/04:00am 10.2 NNW 6 8 1009.5 - 0.0 - - 10 - - - -
29/03:30am 9.6 WNW 5 14 1009.8 - 0.0 - - 10 - - - -
29/03:00am 8.5 CALM 0 3 1010.3 - 0.0 - - 10 - - - -
29/02:30am 7.2 ENE 5 6 1010.7 - 0.0 - - 10 - - - -
29/02:00am 7.5 ENE 1 4 1011.0 - 0.0 - - 10 - - - -
29/01:30am 8.4 NNW 3 7 1011.5 - 0.0 - - 10 - - - -
29/01:00am 8.4 NW 2 4 1011.6 - 0.0 - - 10 - - - -
29/12:30am 8.6 NW 4 6 1011.9 - 0.0 - - 10 - - - -
29/12:00am 8.9 NNW 6 8 1012.0 - 0.0 - - 10 - - - -
 
Date/Time
EST
Temp
°C
Wind Pressure Rain since
9am
mm
Weather Cloud Vis
km
Sea
Height
m
Swell
Dir  Spd
kts
Gust
kts
hPa Trend Height
m
Period
s
Dir
28/11:30pm 8.6 WNW 6 9 1012.3 - 0.0 - - 10 - - - -
28/11:00pm 9.2 WNW 6 10 1012.4 - 0.0 - - 10 - - - -
28/10:30pm 9.2 NW 10 11 1012.7 - 0.0 - - 10 - - - -
28/10:00pm 9.2 W 6 11 1012.8 - 0.0 - - 10 - - - -
28/09:30pm 8.8 W 4 7 1013.0 - 0.0 - - 10 - - - -
28/09:00pm 10.3 WNW 7 11 1013.0 - 0.0 - - 10 - - - -
28/08:30pm 10.5 NW 8 11 1012.8 - 0.0 - - 10 - - - -
28/08:00pm 10.6 NNW 6 8 1012.7 - 0.0 - - 10 - - - -
28/07:30pm 10.2 NW 5 8 1012.4 - 0.0 - - 10 - - - -
28/07:00pm 10.9 NNW 7 10 1012.0 - 0.0 - - 10 - - - -
28/06:30pm 11.0 NNW 6 9 1011.5 - 0.0 - - 10 - - - -
28/06:00pm 11.6 WNW 8 15 1010.9 - 0.0 - - 10 - - - -
28/05:30pm 12.3 NNW 9 14 1010.6 - 0.0 - - 10 - - - -
28/05:00pm 12.3 NW 8 13 1010.3 - 0.0 - - 10 - - - -
28/04:30pm 13.1 NW 9 15 1009.8 - 0.0 - - 10 - - - -
28/04:00pm 14.2 WNW 10 16 1009.3 - 0.0 - - 10 - - - -
28/03:30pm 14.2 WSW 9 18 1008.8 - 0.0 - - 10 - - - -
28/03:00pm 14.7 WNW 10 15 1009.1 - 0.0 - - 10 - - - -
28/02:30pm 14.9 WNW 10 19 1008.9 - 0.0 - - 10 - - - -
28/02:00pm 14.3 WNW 10 15 1008.8 - 0.0 - Partly cloudy 10 - - - -
28/01:30pm 15.0 NW 11 16 1009.1 - 0.0 - Partly cloudy 10 - - - -
28/01:00pm 15.2 NW 10 19 1008.9 - 0.0 - Partly cloudy 10 - - - -
28/12:30pm 15.2 NW 10 19 1009.3 - 0.0 - Partly cloudy 10 - - - -
28/12:00pm 15.1 WNW 11 19 1009.3 - 0.0 - Mostly clear 10 - - - -
28/11:30am 14.9 WNW 8 13 1009.6 - 0.0 - Partly cloudy 10 - - - -
28/11:00am 14.6 NW 8 13 1009.9 - 0.0 - Partly cloudy 10 - - - -
28/10:30am 13.9 WNW 9 14 1009.8 - 0.0 - Partly cloudy 10 - - - -
28/10:00am 13.2 W 10 18 1009.5 - 0.0 - - 10 - - - -
28/09:30am 12.7 WNW 10 16 1009.3 - 0.0 - - 10 - - - -
28/09:00am 12.0 NW 11 18 1009.6 - 0.2 Fine Partly cloudy 25 - - - -
28/08:30am 11.2 N 11 14 1009.5 - 0.2 - Partly cloudy 10 - - - -
28/08:00am 9.9 NNE 10 14 1009.7 - 0.2 - - 10 - - - -
28/07:30am 9.5 NNE 8 11 1009.5 - 0.2 - Partly cloudy 10 - - - -
28/07:00am 9.5 NNE 10 14 1009.4 - 0.2 - Partly cloudy 10 - - - -
28/06:30am 9.1 NNE 10 15 1009.4 - 0.2 - - 10 - - - -
28/06:00am 9.2 N 9 13 1009.2 - 0.2 - - 10 - - - -
28/05:30am 8.5 N 8 12 1009.4 - 0.2 - - 10 - - - -
28/05:00am 8.8 N 7 11 1009.2 - 0.2 - - 10 - - - -
28/04:30am 8.4 NW 6 8 1009.1 - 0.2 - - 10 - - - -
28/04:00am 8.7 NW 8 11 1009.2 - 0.2 - - 10 - - - -
28/03:30am 9.0 NNW 8 12 1009.4 - 0.2 - - 10 - - - -
28/03:00am 8.3 NW 7 9 1009.2 - 0.2 - - 10 - - - -

Other Formats:

Comma delimited format used in spreadsheet applications
http://www.bom.gov.au/fwo/IDT60701/IDT60701.95981.axf

JavaScript Object Notation format (JSON) in row-major order
http://www.bom.gov.au/fwo/IDT60701/IDT60701.95981.json